sensor_id;sensor_type;location;lat;lon;timestamp;P1;durP1;ratioP1;P2;durP2;ratioP2
44145;SDS011;29809;52.432;4.780;2024-02-14T00:01:22;2.65;;;2.50;;
44145;SDS011;29809;52.432;4.780;2024-02-14T00:03:47;2.80;;;2.60;;
44145;SDS011;29809;52.432;4.780;2024-02-14T00:06:12;2.33;;;2.22;;
44145;SDS011;29809;52.432;4.780;2024-02-14T00:08:38;2.92;;;2.72;;
44145;SDS011;29809;52.432;4.780;2024-02-14T00:11:03;2.60;;;2.40;;
44145;SDS011;29809;52.432;4.780;2024-02-14T00:13:28;2.67;;;2.35;;
44145;SDS011;29809;52.432;4.780;2024-02-14T00:15:54;2.72;;;2.53;;
44145;SDS011;29809;52.432;4.780;2024-02-14T00:18:21;2.75;;;2.50;;
44145;SDS011;29809;52.432;4.780;2024-02-14T00:20:47;3.33;;;3.03;;
44145;SDS011;29809;52.432;4.780;2024-02-14T00:23:13;2.55;;;2.35;;
44145;SDS011;29809;52.432;4.780;2024-02-14T00:25:38;3.63;;;2.40;;
44145;SDS011;29809;52.432;4.780;2024-02-14T00:28:04;2.65;;;2.45;;
44145;SDS011;29809;52.432;4.780;2024-02-14T00:30:30;2.83;;;2.50;;
44145;SDS011;29809;52.432;4.780;2024-02-14T00:32:56;3.70;;;2.45;;
44145;SDS011;29809;52.432;4.780;2024-02-14T00:35:21;3.20;;;2.90;;
44145;SDS011;29809;52.432;4.780;2024-02-14T00:37:46;2.83;;;2.63;;
44145;SDS011;29809;52.432;4.780;2024-02-14T00:40:12;4.38;;;2.20;;
44145;SDS011;29809;52.432;4.780;2024-02-14T00:42:37;2.75;;;2.55;;
44145;SDS011;29809;52.432;4.780;2024-02-14T00:45:02;2.55;;;2.40;;
44145;SDS011;29809;52.432;4.780;2024-02-14T00:47:28;2.85;;;2.15;;
44145;SDS011;29809;52.432;4.780;2024-02-14T00:49:53;2.45;;;2.25;;
44145;SDS011;29809;52.432;4.780;2024-02-14T00:52:18;2.42;;;2.22;;
44145;SDS011;29809;52.432;4.780;2024-02-14T00:54:46;2.40;;;2.20;;
44145;SDS011;29809;52.432;4.780;2024-02-14T00:57:11;2.15;;;2.05;;
44145;SDS011;29809;52.432;4.780;2024-02-14T00:59:37;2.50;;;2.30;;
44145;SDS011;29809;52.432;4.780;2024-02-14T01:02:02;2.63;;;2.03;;
44145;SDS011;29809;52.432;4.780;2024-02-14T01:04:28;2.28;;;2.15;;
44145;SDS011;29809;52.432;4.780;2024-02-14T01:06:53;2.45;;;2.25;;
44145;SDS011;29809;52.432;4.780;2024-02-14T01:09:18;2.30;;;2.10;;
44145;SDS011;29809;52.432;4.780;2024-02-14T01:11:44;2.50;;;2.30;;
44145;SDS011;29809;52.432;4.780;2024-02-14T01:14:09;2.92;;;2.72;;
44145;SDS011;29809;52.432;4.780;2024-02-14T01:16:34;2.45;;;2.25;;
44145;SDS011;29809;52.432;4.780;2024-02-14T01:19:06;2.45;;;2.10;;
44145;SDS011;29809;52.432;4.780;2024-02-14T01:21:31;2.15;;;1.98;;
44145;SDS011;29809;52.432;4.780;2024-02-14T01:23:57;2.33;;;2.13;;
44145;SDS011;29809;52.432;4.780;2024-02-14T01:26:22;2.10;;;1.98;;
44145;SDS011;29809;52.432;4.780;2024-02-14T01:28:48;2.25;;;2.05;;
44145;SDS011;29809;52.432;4.780;2024-02-14T01:31:13;2.20;;;2.00;;
44145;SDS011;29809;52.432;4.780;2024-02-14T01:33:38;2.13;;;1.92;;
44145;SDS011;29809;52.432;4.780;2024-02-14T01:36:05;2.63;;;2.35;;
44145;SDS011;29809;52.432;4.780;2024-02-14T01:38:30;2.50;;;2.30;;
44145;SDS011;29809;52.432;4.780;2024-02-14T01:40:58;2.72;;;2.05;;
44145;SDS011;29809;52.432;4.780;2024-02-14T01:43:23;2.05;;;1.95;;
44145;SDS011;29809;52.432;4.780;2024-02-14T01:45:49;2.70;;;2.50;;
44145;SDS011;29809;52.432;4.780;2024-02-14T01:48:14;2.40;;;2.08;;
44145;SDS011;29809;52.432;4.780;2024-02-14T01:50:43;2.83;;;2.63;;
44145;SDS011;29809;52.432;4.780;2024-02-14T01:53:08;2.50;;;2.08;;
44145;SDS011;29809;52.432;4.780;2024-02-14T01:55:34;4.60;;;1.77;;
44145;SDS011;29809;52.432;4.780;2024-02-14T01:57:59;2.65;;;2.40;;
44145;SDS011;29809;52.432;4.780;2024-02-14T02:00:25;2.35;;;2.15;;
44145;SDS011;29809;52.432;4.780;2024-02-14T02:02:50;3.15;;;2.50;;
44145;SDS011;29809;52.432;4.780;2024-02-14T02:05:16;3.25;;;1.85;;
44145;SDS011;29809;52.432;4.780;2024-02-14T02:07:41;2.47;;;1.83;;
44145;SDS011;29809;52.432;4.780;2024-02-14T02:10:11;2.58;;;1.90;;
44145;SDS011;29809;52.432;4.780;2024-02-14T02:12:37;2.42;;;2.13;;
44145;SDS011;29809;52.432;4.780;2024-02-14T02:15:04;3.45;;;1.98;;
44145;SDS011;29809;52.432;4.780;2024-02-14T02:17:30;2.55;;;1.90;;
44145;SDS011;29809;52.432;4.780;2024-02-14T02:19:55;2.22;;;1.85;;
44145;SDS011;29809;52.432;4.780;2024-02-14T02:22:20;3.88;;;1.90;;
44145;SDS011;29809;52.432;4.780;2024-02-14T02:24:45;2.85;;;1.85;;
44145;SDS011;29809;52.432;4.780;2024-02-14T02:27:12;2.90;;;1.70;;
44145;SDS011;29809;52.432;4.780;2024-02-14T02:29:38;1.33;;;1.23;;
44145;SDS011;29809;52.432;4.780;2024-02-14T02:32:04;2.90;;;1.52;;
44145;SDS011;29809;52.432;4.780;2024-02-14T02:34:31;3.03;;;1.80;;
44145;SDS011;29809;52.432;4.780;2024-02-14T02:36:56;2.05;;;1.60;;
44145;SDS011;29809;52.432;4.780;2024-02-14T02:39:22;2.95;;;1.88;;
44145;SDS011;29809;52.432;4.780;2024-02-14T02:41:47;2.17;;;1.40;;
44145;SDS011;29809;52.432;4.780;2024-02-14T02:44:13;2.05;;;1.42;;
44145;SDS011;29809;52.432;4.780;2024-02-14T02:46:39;2.00;;;1.42;;
44145;SDS011;29809;52.432;4.780;2024-02-14T02:49:04;1.98;;;1.35;;
44145;SDS011;29809;52.432;4.780;2024-02-14T02:51:29;1.83;;;1.40;;
44145;SDS011;29809;52.432;4.780;2024-02-14T02:53:55;1.98;;;1.50;;
44145;SDS011;29809;52.432;4.780;2024-02-14T02:56:20;3.25;;;1.40;;
44145;SDS011;29809;52.432;4.780;2024-02-14T02:58:47;2.78;;;1.60;;
44145;SDS011;29809;52.432;4.780;2024-02-14T03:01:13;2.13;;;1.40;;
44145;SDS011;29809;52.432;4.780;2024-02-14T03:03:38;2.80;;;1.25;;
44145;SDS011;29809;52.432;4.780;2024-02-14T03:06:04;2.65;;;1.55;;
44145;SDS011;29809;52.432;4.780;2024-02-14T03:08:29;3.40;;;1.90;;
44145;SDS011;29809;52.432;4.780;2024-02-14T03:10:55;2.35;;;1.70;;
44145;SDS011;29809;52.432;4.780;2024-02-14T03:13:20;2.88;;;2.17;;
44145;SDS011;29809;52.432;4.780;2024-02-14T03:15:46;3.65;;;1.40;;
44145;SDS011;29809;52.432;4.780;2024-02-14T03:18:13;3.50;;;2.00;;
44145;SDS011;29809;52.432;4.780;2024-02-14T03:20:38;6.50;;;2.25;;
44145;SDS011;29809;52.432;4.780;2024-02-14T03:23:03;3.92;;;2.00;;
44145;SDS011;29809;52.432;4.780;2024-02-14T03:25:29;3.80;;;1.85;;
44145;SDS011;29809;52.432;4.780;2024-02-14T03:27:54;5.80;;;2.28;;
44145;SDS011;29809;52.432;4.780;2024-02-14T03:30:21;5.53;;;2.30;;
44145;SDS011;29809;52.432;4.780;2024-02-14T03:32:47;4.25;;;1.77;;
44145;SDS011;29809;52.432;4.780;2024-02-14T03:35:13;5.80;;;2.75;;
44145;SDS011;29809;52.432;4.780;2024-02-14T03:37:38;5.13;;;2.35;;
44145;SDS011;29809;52.432;4.780;2024-02-14T03:40:04;6.88;;;1.92;;
44145;SDS011;29809;52.432;4.780;2024-02-14T03:42:30;7.25;;;2.67;;
44145;SDS011;29809;52.432;4.780;2024-02-14T03:44:55;9.45;;;3.28;;
44145;SDS011;29809;52.432;4.780;2024-02-14T03:47:27;5.55;;;2.22;;
44145;SDS011;29809;52.432;4.780;2024-02-14T03:49:53;6.97;;;2.58;;
44145;SDS011;29809;52.432;4.780;2024-02-14T03:52:18;5.72;;;2.67;;
44145;SDS011;29809;52.432;4.780;2024-02-14T03:54:43;8.85;;;2.75;;
44145;SDS011;29809;52.432;4.780;2024-02-14T03:57:09;8.27;;;2.55;;
44145;SDS011;29809;52.432;4.780;2024-02-14T03:59:37;7.63;;;2.58;;
44145;SDS011;29809;52.432;4.780;2024-02-14T04:02:04;8.82;;;3.08;;
44145;SDS011;29809;52.432;4.780;2024-02-14T04:04:29;7.32;;;2.80;;
44145;SDS011;29809;52.432;4.780;2024-02-14T04:06:54;7.90;;;3.05;;
44145;SDS011;29809;52.432;4.780;2024-02-14T04:09:19;9.70;;;3.15;;
44145;SDS011;29809;52.432;4.780;2024-02-14T04:11:45;8.77;;;2.67;;
44145;SDS011;29809;52.432;4.780;2024-02-14T04:14:10;7.40;;;2.55;;
44145;SDS011;29809;52.432;4.780;2024-02-14T04:16:35;11.18;;;3.10;;
44145;SDS011;29809;52.432;4.780;2024-02-14T04:19:01;6.70;;;2.70;;
44145;SDS011;29809;52.432;4.780;2024-02-14T04:21:27;8.35;;;3.13;;
44145;SDS011;29809;52.432;4.780;2024-02-14T04:23:52;11.15;;;3.45;;
44145;SDS011;29809;52.432;4.780;2024-02-14T04:26:20;9.02;;;2.92;;
44145;SDS011;29809;52.432;4.780;2024-02-14T04:28:46;10.90;;;3.65;;
44145;SDS011;29809;52.432;4.780;2024-02-14T04:31:11;9.65;;;2.85;;
44145;SDS011;29809;52.432;4.780;2024-02-14T04:33:36;9.60;;;3.05;;
44145;SDS011;29809;52.432;4.780;2024-02-14T04:36:02;6.88;;;3.08;;
44145;SDS011;29809;52.432;4.780;2024-02-14T04:38:27;10.70;;;2.85;;
44145;SDS011;29809;52.432;4.780;2024-02-14T04:40:54;9.13;;;3.60;;
44145;SDS011;29809;52.432;4.780;2024-02-14T04:43:21;10.65;;;4.13;;
44145;SDS011;29809;52.432;4.780;2024-02-14T04:45:46;10.15;;;3.08;;
44145;SDS011;29809;52.432;4.780;2024-02-14T04:48:12;11.90;;;3.80;;
44145;SDS011;29809;52.432;4.780;2024-02-14T04:50:38;9.93;;;3.10;;
44145;SDS011;29809;52.432;4.780;2024-02-14T04:53:03;11.15;;;3.58;;
44145;SDS011;29809;52.432;4.780;2024-02-14T04:55:28;10.80;;;3.15;;
44145;SDS011;29809;52.432;4.780;2024-02-14T04:57:54;8.65;;;3.47;;
44145;SDS011;29809;52.432;4.780;2024-02-14T05:00:19;10.77;;;3.08;;
44145;SDS011;29809;52.432;4.780;2024-02-14T05:02:45;10.13;;;3.10;;
44145;SDS011;29809;52.432;4.780;2024-02-14T05:05:10;10.52;;;2.97;;
44145;SDS011;29809;52.432;4.780;2024-02-14T05:07:35;10.95;;;3.53;;
44145;SDS011;29809;52.432;4.780;2024-02-14T05:10:00;6.35;;;2.95;;
44145;SDS011;29809;52.432;4.780;2024-02-14T05:12:26;8.38;;;2.90;;
44145;SDS011;29809;52.432;4.780;2024-02-14T05:14:51;9.02;;;3.40;;
44145;SDS011;29809;52.432;4.780;2024-02-14T05:17:16;8.18;;;2.85;;
44145;SDS011;29809;52.432;4.780;2024-02-14T05:19:42;10.52;;;3.63;;
44145;SDS011;29809;52.432;4.780;2024-02-14T05:22:07;7.55;;;3.28;;
44145;SDS011;29809;52.432;4.780;2024-02-14T05:24:33;11.50;;;3.30;;
44145;SDS011;29809;52.432;4.780;2024-02-14T05:27:00;9.20;;;2.97;;
44145;SDS011;29809;52.432;4.780;2024-02-14T05:29:25;12.00;;;3.40;;
44145;SDS011;29809;52.432;4.780;2024-02-14T05:31:51;9.85;;;3.35;;
44145;SDS011;29809;52.432;4.780;2024-02-14T05:34:20;10.15;;;3.58;;
44145;SDS011;29809;52.432;4.780;2024-02-14T05:36:45;7.80;;;2.90;;
44145;SDS011;29809;52.432;4.780;2024-02-14T05:39:10;9.50;;;3.30;;
44145;SDS011;29809;52.432;4.780;2024-02-14T05:41:36;9.07;;;3.33;;
44145;SDS011;29809;52.432;4.780;2024-02-14T05:44:02;10.68;;;3.25;;
44145;SDS011;29809;52.432;4.780;2024-02-14T05:46:27;8.60;;;3.83;;
44145;SDS011;29809;52.432;4.780;2024-02-14T05:48:53;7.95;;;2.85;;
44145;SDS011;29809;52.432;4.780;2024-02-14T05:51:18;6.60;;;3.00;;
44145;SDS011;29809;52.432;4.780;2024-02-14T05:53:44;8.40;;;3.05;;
44145;SDS011;29809;52.432;4.780;2024-02-14T05:56:09;7.90;;;3.22;;
44145;SDS011;29809;52.432;4.780;2024-02-14T05:58:34;8.65;;;3.50;;
44145;SDS011;29809;52.432;4.780;2024-02-14T06:01:00;8.13;;;3.22;;
44145;SDS011;29809;52.432;4.780;2024-02-14T06:03:26;7.45;;;3.33;;
44145;SDS011;29809;52.432;4.780;2024-02-14T06:05:51;8.20;;;3.22;;
44145;SDS011;29809;52.432;4.780;2024-02-14T06:08:16;6.43;;;2.85;;
44145;SDS011;29809;52.432;4.780;2024-02-14T06:10:41;9.23;;;2.80;;
44145;SDS011;29809;52.432;4.780;2024-02-14T06:13:07;10.57;;;3.20;;
44145;SDS011;29809;52.432;4.780;2024-02-14T06:15:32;8.77;;;3.13;;
44145;SDS011;29809;52.432;4.780;2024-02-14T06:17:57;8.43;;;3.25;;
44145;SDS011;29809;52.432;4.780;2024-02-14T06:20:23;9.00;;;3.38;;
44145;SDS011;29809;52.432;4.780;2024-02-14T06:22:48;7.22;;;3.22;;
44145;SDS011;29809;52.432;4.780;2024-02-14T06:25:13;10.95;;;3.25;;
44145;SDS011;29809;52.432;4.780;2024-02-14T06:27:38;7.43;;;2.72;;
44145;SDS011;29809;52.432;4.780;2024-02-14T06:30:04;8.73;;;2.95;;
44145;SDS011;29809;52.432;4.780;2024-02-14T06:32:29;10.50;;;3.03;;
44145;SDS011;29809;52.432;4.780;2024-02-14T06:34:55;6.78;;;3.10;;
44145;SDS011;29809;52.432;4.780;2024-02-14T06:37:20;8.70;;;3.20;;
44145;SDS011;29809;52.432;4.780;2024-02-14T06:39:45;10.52;;;3.72;;
44145;SDS011;29809;52.432;4.780;2024-02-14T06:42:10;6.95;;;2.90;;
44145;SDS011;29809;52.432;4.780;2024-02-14T06:44:36;6.68;;;2.92;;
44145;SDS011;29809;52.432;4.780;2024-02-14T06:47:01;6.40;;;2.80;;
44145;SDS011;29809;52.432;4.780;2024-02-14T06:49:26;6.63;;;2.90;;
44145;SDS011;29809;52.432;4.780;2024-02-14T06:51:51;6.70;;;2.72;;
44145;SDS011;29809;52.432;4.780;2024-02-14T06:54:16;11.05;;;3.33;;
44145;SDS011;29809;52.432;4.780;2024-02-14T06:56:44;6.07;;;2.83;;
44145;SDS011;29809;52.432;4.780;2024-02-14T06:59:09;7.15;;;2.85;;
44145;SDS011;29809;52.432;4.780;2024-02-14T07:01:35;8.30;;;3.13;;
44145;SDS011;29809;52.432;4.780;2024-02-14T07:04:00;7.47;;;3.20;;
44145;SDS011;29809;52.432;4.780;2024-02-14T07:06:26;8.77;;;3.17;;
44145;SDS011;29809;52.432;4.780;2024-02-14T07:08:51;5.43;;;3.40;;
44145;SDS011;29809;52.432;4.780;2024-02-14T07:11:17;7.72;;;3.28;;
44145;SDS011;29809;52.432;4.780;2024-02-14T07:13:42;6.32;;;3.33;;
44145;SDS011;29809;52.432;4.780;2024-02-14T07:16:07;8.55;;;4.07;;
44145;SDS011;29809;52.432;4.780;2024-02-14T07:18:33;8.25;;;3.67;;
44145;SDS011;29809;52.432;4.780;2024-02-14T07:20:59;9.57;;;3.30;;
44145;SDS011;29809;52.432;4.780;2024-02-14T07:23:24;6.70;;;3.08;;
44145;SDS011;29809;52.432;4.780;2024-02-14T07:25:49;6.93;;;3.22;;
44145;SDS011;29809;52.432;4.780;2024-02-14T07:28:14;8.68;;;3.30;;
44145;SDS011;29809;52.432;4.780;2024-02-14T07:30:39;5.15;;;2.60;;
44145;SDS011;29809;52.432;4.780;2024-02-14T07:33:05;75.75;;;17.25;;
44145;SDS011;29809;52.432;4.780;2024-02-14T07:35:30;69.10;;;21.13;;
44145;SDS011;29809;52.432;4.780;2024-02-14T07:37:55;57.78;;;18.92;;
44145;SDS011;29809;52.432;4.780;2024-02-14T07:40:21;42.72;;;17.05;;
44145;SDS011;29809;52.432;4.780;2024-02-14T07:42:46;49.20;;;14.52;;
44145;SDS011;29809;52.432;4.780;2024-02-14T07:45:12;38.33;;;14.35;;
44145;SDS011;29809;52.432;4.780;2024-02-14T07:47:37;31.55;;;11.90;;
44145;SDS011;29809;52.432;4.780;2024-02-14T07:50:03;30.35;;;10.77;;
44145;SDS011;29809;52.432;4.780;2024-02-14T07:52:28;27.27;;;10.27;;
44145;SDS011;29809;52.432;4.780;2024-02-14T07:54:54;26.30;;;9.25;;
44145;SDS011;29809;52.432;4.780;2024-02-14T07:57:20;25.98;;;8.48;;
44145;SDS011;29809;52.432;4.780;2024-02-14T07:59:45;23.20;;;8.13;;
44145;SDS011;29809;52.432;4.780;2024-02-14T08:02:10;19.02;;;8.07;;
44145;SDS011;29809;52.432;4.780;2024-02-14T08:04:35;17.58;;;7.25;;
44145;SDS011;29809;52.432;4.780;2024-02-14T08:07:01;16.10;;;7.05;;
44145;SDS011;29809;52.432;4.780;2024-02-14T08:09:26;16.83;;;5.43;;
44145;SDS011;29809;52.432;4.780;2024-02-14T08:11:51;16.40;;;6.32;;
44145;SDS011;29809;52.432;4.780;2024-02-14T08:14:18;16.67;;;6.28;;
44145;SDS011;29809;52.432;4.780;2024-02-14T08:16:43;10.70;;;4.97;;
44145;SDS011;29809;52.432;4.780;2024-02-14T08:19:08;12.02;;;4.75;;
44145;SDS011;29809;52.432;4.780;2024-02-14T08:21:33;14.80;;;5.82;;
44145;SDS011;29809;52.432;4.780;2024-02-14T08:23:59;14.55;;;4.60;;
44145;SDS011;29809;52.432;4.780;2024-02-14T08:26:24;12.15;;;5.20;;
44145;SDS011;29809;52.432;4.780;2024-02-14T08:28:49;8.35;;;3.92;;
44145;SDS011;29809;52.432;4.780;2024-02-14T08:31:15;12.68;;;5.32;;
44145;SDS011;29809;52.432;4.780;2024-02-14T08:33:40;9.93;;;4.07;;
44145;SDS011;29809;52.432;4.780;2024-02-14T08:36:05;8.13;;;3.90;;
44145;SDS011;29809;52.432;4.780;2024-02-14T08:38:32;9.32;;;4.20;;
44145;SDS011;29809;52.432;4.780;2024-02-14T08:40:58;8.45;;;3.83;;
44145;SDS011;29809;52.432;4.780;2024-02-14T08:43:23;8.30;;;3.45;;
44145;SDS011;29809;52.432;4.780;2024-02-14T08:45:50;8.00;;;3.53;;
44145;SDS011;29809;52.432;4.780;2024-02-14T08:48:16;8.73;;;4.13;;
44145;SDS011;29809;52.432;4.780;2024-02-14T08:50:41;7.80;;;3.40;;
44145;SDS011;29809;52.432;4.780;2024-02-14T08:53:07;6.65;;;2.70;;
44145;SDS011;29809;52.432;4.780;2024-02-14T08:55:32;7.82;;;3.30;;
44145;SDS011;29809;52.432;4.780;2024-02-14T08:57:58;8.40;;;3.40;;
44145;SDS011;29809;52.432;4.780;2024-02-14T09:00:23;5.55;;;2.92;;
44145;SDS011;29809;52.432;4.780;2024-02-14T09:02:48;6.40;;;3.08;;
44145;SDS011;29809;52.432;4.780;2024-02-14T09:05:14;6.88;;;2.78;;
44145;SDS011;29809;52.432;4.780;2024-02-14T09:07:39;5.97;;;2.83;;
44145;SDS011;29809;52.432;4.780;2024-02-14T09:10:06;5.80;;;2.50;;
44145;SDS011;29809;52.432;4.780;2024-02-14T09:12:32;5.43;;;2.55;;
44145;SDS011;29809;52.432;4.780;2024-02-14T09:14:57;5.80;;;2.92;;
44145;SDS011;29809;52.432;4.780;2024-02-14T09:17:22;5.70;;;2.47;;
44145;SDS011;29809;52.432;4.780;2024-02-14T09:19:48;5.80;;;2.45;;
44145;SDS011;29809;52.432;4.780;2024-02-14T09:22:13;4.38;;;2.30;;
44145;SDS011;29809;52.432;4.780;2024-02-14T09:24:43;3.90;;;1.92;;
44145;SDS011;29809;52.432;4.780;2024-02-14T09:27:08;4.35;;;2.13;;
44145;SDS011;29809;52.432;4.780;2024-02-14T09:29:34;5.03;;;2.10;;
44145;SDS011;29809;52.432;4.780;2024-02-14T09:32:01;6.65;;;2.35;;
44145;SDS011;29809;52.432;4.780;2024-02-14T09:34:26;3.75;;;1.98;;
44145;SDS011;29809;52.432;4.780;2024-02-14T09:36:52;3.90;;;2.08;;
44145;SDS011;29809;52.432;4.780;2024-02-14T09:39:18;4.95;;;1.98;;
44145;SDS011;29809;52.432;4.780;2024-02-14T09:41:44;5.28;;;2.00;;
44145;SDS011;29809;52.432;4.780;2024-02-14T09:44:09;3.28;;;1.90;;
44145;SDS011;29809;52.432;4.780;2024-02-14T09:46:37;3.85;;;1.83;;
44145;SDS011;29809;52.432;4.780;2024-02-14T09:49:03;2.92;;;2.08;;
44145;SDS011;29809;52.432;4.780;2024-02-14T09:51:29;5.13;;;2.15;;
44145;SDS011;29809;52.432;4.780;2024-02-14T09:53:54;3.67;;;1.70;;
44145;SDS011;29809;52.432;4.780;2024-02-14T09:56:20;2.90;;;1.75;;
44145;SDS011;29809;52.432;4.780;2024-02-14T09:58:47;3.10;;;1.50;;
44145;SDS011;29809;52.432;4.780;2024-02-14T10:01:24;2.03;;;1.30;;
44145;SDS011;29809;52.432;4.780;2024-02-14T10:03:50;2.33;;;1.70;;
44145;SDS011;29809;52.432;4.780;2024-02-14T10:06:17;3.58;;;1.63;;
44145;SDS011;29809;52.432;4.780;2024-02-14T10:08:42;2.08;;;1.35;;
44145;SDS011;29809;52.432;4.780;2024-02-14T10:11:07;3.35;;;1.55;;
44145;SDS011;29809;52.432;4.780;2024-02-14T10:13:33;4.57;;;1.20;;
44145;SDS011;29809;52.432;4.780;2024-02-14T10:15:59;2.15;;;1.35;;
44145;SDS011;29809;52.432;4.780;2024-02-14T10:18:27;2.17;;;1.55;;
44145;SDS011;29809;52.432;4.780;2024-02-14T10:20:55;2.38;;;1.30;;
44145;SDS011;29809;52.432;4.780;2024-02-14T10:23:20;1.85;;;1.38;;
44145;SDS011;29809;52.432;4.780;2024-02-14T10:25:45;1.20;;;1.10;;
44145;SDS011;29809;52.432;4.780;2024-02-14T10:28:12;3.67;;;1.15;;
44145;SDS011;29809;52.432;4.780;2024-02-14T10:30:37;2.00;;;1.00;;
44145;SDS011;29809;52.432;4.780;2024-02-14T10:33:07;2.38;;;1.30;;
44145;SDS011;29809;52.432;4.780;2024-02-14T10:35:33;3.08;;;1.42;;
44145;SDS011;29809;52.432;4.780;2024-02-14T10:38:01;1.73;;;1.10;;
44145;SDS011;29809;52.432;4.780;2024-02-14T10:40:27;2.20;;;1.10;;
44145;SDS011;29809;52.432;4.780;2024-02-14T10:42:53;1.25;;;1.02;;
44145;SDS011;29809;52.432;4.780;2024-02-14T10:45:19;3.25;;;1.00;;
44145;SDS011;29809;52.432;4.780;2024-02-14T10:47:45;3.58;;;1.27;;
44145;SDS011;29809;52.432;4.780;2024-02-14T10:50:13;2.10;;;1.10;;
44145;SDS011;29809;52.432;4.780;2024-02-14T10:52:40;1.15;;;0.90;;
44145;SDS011;29809;52.432;4.780;2024-02-14T10:55:06;1.42;;;1.08;;
44145;SDS011;29809;52.432;4.780;2024-02-14T10:57:32;2.60;;;1.30;;
44145;SDS011;29809;52.432;4.780;2024-02-14T10:59:58;3.00;;;1.20;;
44145;SDS011;29809;52.432;4.780;2024-02-14T11:02:24;1.45;;;0.88;;
44145;SDS011;29809;52.432;4.780;2024-02-14T11:04:51;1.95;;;1.05;;
44145;SDS011;29809;52.432;4.780;2024-02-14T11:07:19;1.83;;;0.90;;
44145;SDS011;29809;52.432;4.780;2024-02-14T11:09:44;2.38;;;1.00;;
44145;SDS011;29809;52.432;4.780;2024-02-14T11:12:10;1.52;;;1.00;;
44145;SDS011;29809;52.432;4.780;2024-02-14T11:14:35;3.55;;;1.17;;
44145;SDS011;29809;52.432;4.780;2024-02-14T11:17:02;1.40;;;0.80;;
44145;SDS011;29809;52.432;4.780;2024-02-14T11:19:31;1.58;;;0.70;;
44145;SDS011;29809;52.432;4.780;2024-02-14T11:22:09;2.45;;;0.82;;
44145;SDS011;29809;52.432;4.780;2024-02-14T11:24:36;1.00;;;0.90;;
44145;SDS011;29809;52.432;4.780;2024-02-14T11:27:01;0.80;;;0.70;;
44145;SDS011;29809;52.432;4.780;2024-02-14T11:29:30;2.25;;;1.00;;
44145;SDS011;29809;52.432;4.780;2024-02-14T11:31:58;1.00;;;0.82;;
44145;SDS011;29809;52.432;4.780;2024-02-14T11:34:25;1.67;;;0.80;;
44145;SDS011;29809;52.432;4.780;2024-02-14T11:36:50;1.67;;;0.90;;
44145;SDS011;29809;52.432;4.780;2024-02-14T11:39:16;0.63;;;0.63;;
44145;SDS011;29809;52.432;4.780;2024-02-14T11:41:41;2.78;;;1.00;;
44145;SDS011;29809;52.432;4.780;2024-02-14T11:44:07;0.80;;;0.70;;
44145;SDS011;29809;52.432;4.780;2024-02-14T11:46:33;1.20;;;1.00;;
44145;SDS011;29809;52.432;4.780;2024-02-14T11:48:59;0.70;;;0.70;;
44145;SDS011;29809;52.432;4.780;2024-02-14T11:51:26;2.42;;;0.90;;
44145;SDS011;29809;52.432;4.780;2024-02-14T11:53:52;1.23;;;0.70;;
44145;SDS011;29809;52.432;4.780;2024-02-14T11:56:17;2.25;;;1.10;;
44145;SDS011;29809;52.432;4.780;2024-02-14T11:58:42;1.00;;;0.70;;
44145;SDS011;29809;52.432;4.780;2024-02-14T12:01:08;0.60;;;0.60;;
44145;SDS011;29809;52.432;4.780;2024-02-14T12:03:34;1.50;;;0.77;;
44145;SDS011;29809;52.432;4.780;2024-02-14T12:06:00;1.83;;;1.05;;
44145;SDS011;29809;52.432;4.780;2024-02-14T12:08:27;1.02;;;1.02;;
44145;SDS011;29809;52.432;4.780;2024-02-14T12:10:52;0.98;;;0.90;;
44145;SDS011;29809;52.432;4.780;2024-02-14T12:13:19;1.88;;;0.60;;
44145;SDS011;29809;52.432;4.780;2024-02-14T12:15:45;2.88;;;0.88;;
44145;SDS011;29809;52.432;4.780;2024-02-14T12:18:11;1.85;;;0.77;;
44145;SDS011;29809;52.432;4.780;2024-02-14T12:20:40;0.90;;;0.70;;
44145;SDS011;29809;52.432;4.780;2024-02-14T12:23:06;1.30;;;1.05;;
44145;SDS011;29809;52.432;4.780;2024-02-14T12:25:31;1.23;;;0.90;;
44145;SDS011;29809;52.432;4.780;2024-02-14T12:27:56;1.52;;;1.00;;
44145;SDS011;29809;52.432;4.780;2024-02-14T12:30:23;1.00;;;0.90;;
44145;SDS011;29809;52.432;4.780;2024-02-14T12:32:58;0.90;;;0.90;;
44145;SDS011;29809;52.432;4.780;2024-02-14T12:35:23;1.00;;;0.90;;
44145;SDS011;29809;52.432;4.780;2024-02-14T12:37:48;0.60;;;0.60;;
44145;SDS011;29809;52.432;4.780;2024-02-14T12:40:14;0.82;;;0.82;;
44145;SDS011;29809;52.432;4.780;2024-02-14T12:42:39;0.90;;;0.90;;
44145;SDS011;29809;52.432;4.780;2024-02-14T12:45:04;1.75;;;0.80;;
44145;SDS011;29809;52.432;4.780;2024-02-14T12:47:30;1.90;;;0.90;;
44145;SDS011;29809;52.432;4.780;2024-02-14T12:49:58;0.93;;;0.68;;
44145;SDS011;29809;52.432;4.780;2024-02-14T12:52:24;0.73;;;0.60;;
44145;SDS011;29809;52.432;4.780;2024-02-14T12:54:50;0.82;;;0.77;;
44145;SDS011;29809;52.432;4.780;2024-02-14T12:57:15;0.65;;;0.65;;
44145;SDS011;29809;52.432;4.780;2024-02-14T12:59:40;0.60;;;0.60;;
44145;SDS011;29809;52.432;4.780;2024-02-14T13:02:06;1.20;;;0.55;;
44145;SDS011;29809;52.432;4.780;2024-02-14T13:04:31;0.70;;;0.70;;
44145;SDS011;29809;52.432;4.780;2024-02-14T13:06:57;1.08;;;0.55;;
44145;SDS011;29809;52.432;4.780;2024-02-14T13:09:22;0.68;;;0.68;;
44145;SDS011;29809;52.432;4.780;2024-02-14T13:11:48;0.57;;;0.57;;
44145;SDS011;29809;52.432;4.780;2024-02-14T13:14:13;0.60;;;0.60;;
44145;SDS011;29809;52.432;4.780;2024-02-14T13:16:39;0.60;;;0.60;;
44145;SDS011;29809;52.432;4.780;2024-02-14T13:19:05;0.93;;;0.68;;
44145;SDS011;29809;52.432;4.780;2024-02-14T13:21:30;0.68;;;0.45;;
44145;SDS011;29809;52.432;4.780;2024-02-14T13:23:55;1.33;;;0.50;;
44145;SDS011;29809;52.432;4.780;2024-02-14T13:26:22;1.27;;;0.50;;
44145;SDS011;29809;52.432;4.780;2024-02-14T13:28:48;0.40;;;0.40;;
44145;SDS011;29809;52.432;4.780;2024-02-14T13:31:13;0.35;;;0.35;;
44145;SDS011;29809;52.432;4.780;2024-02-14T13:33:39;0.40;;;0.40;;
44145;SDS011;29809;52.432;4.780;2024-02-14T13:36:04;2.05;;;0.68;;
44145;SDS011;29809;52.432;4.780;2024-02-14T13:38:30;0.35;;;0.35;;
44145;SDS011;29809;52.432;4.780;2024-02-14T13:40:55;0.50;;;0.50;;
44145;SDS011;29809;52.432;4.780;2024-02-14T13:43:21;1.55;;;0.50;;
44145;SDS011;29809;52.432;4.780;2024-02-14T13:45:46;0.70;;;0.68;;
44145;SDS011;29809;52.432;4.780;2024-02-14T13:48:13;0.68;;;0.68;;
44145;SDS011;29809;52.432;4.780;2024-02-14T13:50:38;0.80;;;0.60;;
44145;SDS011;29809;52.432;4.780;2024-02-14T13:53:04;0.50;;;0.50;;
44145;SDS011;29809;52.432;4.780;2024-02-14T13:55:29;0.80;;;0.80;;
44145;SDS011;29809;52.432;4.780;2024-02-14T13:57:55;0.75;;;0.75;;
44145;SDS011;29809;52.432;4.780;2024-02-14T14:00:20;1.05;;;0.90;;
44145;SDS011;29809;52.432;4.780;2024-02-14T14:02:46;0.80;;;0.80;;
44145;SDS011;29809;52.432;4.780;2024-02-14T14:05:11;2.58;;;0.85;;
44145;SDS011;29809;52.432;4.780;2024-02-14T14:07:37;2.85;;;1.20;;
44145;SDS011;29809;52.432;4.780;2024-02-14T14:10:04;1.60;;;1.02;;
44145;SDS011;29809;52.432;4.780;2024-02-14T14:12:29;1.55;;;1.25;;
44145;SDS011;29809;52.432;4.780;2024-02-14T14:14:56;1.20;;;0.85;;
44145;SDS011;29809;52.432;4.780;2024-02-14T14:17:21;3.28;;;1.40;;
44145;SDS011;29809;52.432;4.780;2024-02-14T14:19:46;1.05;;;0.90;;
44145;SDS011;29809;52.432;4.780;2024-02-14T14:22:12;1.38;;;1.00;;
44145;SDS011;29809;52.432;4.780;2024-02-14T14:24:37;1.40;;;1.10;;
44145;SDS011;29809;52.432;4.780;2024-02-14T14:27:02;1.80;;;0.90;;
44145;SDS011;29809;52.432;4.780;2024-02-14T14:29:27;0.77;;;0.73;;
44145;SDS011;29809;52.432;4.780;2024-02-14T14:31:53;1.15;;;0.93;;
44145;SDS011;29809;52.432;4.780;2024-02-14T14:34:19;1.55;;;0.90;;
44145;SDS011;29809;52.432;4.780;2024-02-14T14:36:44;1.33;;;0.80;;